Portland, OR (97266)

7:45 AM PDT on October 01, 2014 (GMT -0700)
Hoffman KB | Change Station
CLOSE
Current Station
Personal Weather Station
Location: Portland, OR
Elevation: 318 ft
Nearby Weather Stations
Active Advisory: Special Statement

Elev 318 ft 45.50 °N, 122.56 °W | Updated 5 minutes ago

Overcast
Overcast
49.5 °F
Feels Like 50 °F
N
0.0
Wind Variable Wind from NNE

Today
High -- | Low -- °F
--% Chance of Precip.
Yesterday
High -- | Low -- °F
Precip. -- in
7:08 AM 6:50 PM
Waxing Crescent, 48% visible
Pressure 30.12 in
Visibility 6.0 miles
Clouds Scattered Clouds 2600 ft
Mostly Cloudy 3800 ft
Mostly Cloudy 6000 ft
Windchill 50 °F
Dew Point 48 °F
Humidity 95%
Rainfall 0.00 in
Snow Depth 1 in , 0 in , 0 in
UV 0 out of 12
Pollen .90 out of 12
Ozone Good
PM2.5 Good
Flu Activity Not available.
METAR KPDX 301453Z 20005KT 6SM -RA BR SCT026 BKN038 BKN060 13/12 A3012 RMK AO2 RAB1359 SLP197 P0004 60004 T01280122 51012

More Conditions Fewer Conditions

Pressure 30.12 in
Visibility 6.0 miles
Clouds Scattered Clouds 2600 ft
Mostly Cloudy 3800 ft
Mostly Cloudy 6000 ft
Windchill 50 °F
Dew Point 48 °F
Humidity 95%
Rainfall 0.00 in
Snow Depth 1 in , 0 in , 0 in
UV 0 out of 12
Pollen .90 out of 12
Ozone Good
PM2.5 Good
Flu Activity Not available.
METAR KPDX 301453Z 20005KT 6SM -RA BR SCT026 BKN038 BKN060 13/12 A3012 RMK AO2 RAB1359 SLP197 P0004 60004 T01280122 51012

More Conditions Fewer Conditions

10-Day Weather Forecast

Almanac

Astronomy

Oct. 01, 2014 Rise Set
Actual Time 7:08 AM PDT 6:50 PM PDT
Civil Twilight 6:39 AM PDT 7:19 PM PDT
Nautical Twilight 6:04 AM PDT 7:54 PM PDT
Astronomical Twilight 5:29 AM PDT 8:28 PM PDT
Moon 2:26 PM PDT No Moon Set
Length of Visible Light 12h 40m
Length of Day
11h 41m
Tomorrow will be 3m 9s shorter.
Waxing Crescent, 48% of the Moon is Illuminated
Today
Waxing Crescent
Oct 1
First Quarter
Oct 8
Full
Oct 15
Last Quarter
Oct 23
New

Today's Extremes

State Highs State Lows

Community

WunderPhotos

Upload Photos

1,757,960 photos uploaded!

Nearby

Air Quality

  Air Quality AQ Index Pollutant
Yesterday Good
OZONE
Yesterday Good
PM2.5
Current Good
PM2.5
Current Good
OZONE
Wednesday Good
PM2.5

Snow Depth

Station Depth Elevation
Bigelow Camp 1 in 5120 ft
Blue Mountain Spring 0 in 5900 ft
Lake Creek R.S. 0 in 5200 ft
Schneider Meadows 1 in 5400 ft
Silver Creek 0 in 5720 ft

Earthquake Activity

City Distance Mag. Time & Date
No recent earthquake activity has been reported nearby.
Minimum magnitude displayed is 2.5.

Coastal Water Temperatures

Place Temperature
No Stations Reporting

Nearby Weather Stations